Time;durP1;ratioP1;P1;durP2;ratioP2;P2;SDS_P1;SDS_P2;PMS_P1;PMS_P2;Temp;Humidity;BMP_temperature;BMP_pressure;BME280_temperature;BME280_humidity;BME280_pressure;Samples;Min_cycle;Max_cycle;Signal;HPM_P1;HPM_P2
2023/01/24 00:01:18;;;;;;;13.93;8.57;;;1.70;99.90;1.40;102647.00;;;;4780322;29;89923;-69
2023/01/24 00:03:43;;;;;;;15.57;11.07;;;1.70;99.90;1.40;102643.00;;;;4780511;29;88002;-69
2023/01/24 00:06:09;;;;;;;20.10;10.93;;;1.70;99.90;1.40;102644.00;;;;4780651;29;110335;-69
2023/01/24 00:08:35;;;;;;;15.43;9.80;;;1.70;99.90;1.40;102646.00;;;;4781546;29;116927;-68
2023/01/24 00:11:08;;;;;;;20.33;12.00;;;1.80;99.90;1.30;102644.00;;;;4782623;29;100456;-69
2023/01/24 00:13:35;;;;;;;17.27;11.23;;;1.70;99.90;1.30;102641.00;;;;4778742;29;87893;-69
2023/01/24 00:16:22;;;;;;;14.67;11.10;;;1.70;99.90;1.30;102648.00;;;;4783116;29;87791;-68
2023/01/24 00:18:49;;;;;;;20.43;10.77;;;1.60;99.90;1.30;102645.00;;;;4782171;29;91753;-69
2023/01/24 00:21:21;;;;;;;16.17;9.77;;;1.70;99.90;1.30;102646.00;;;;4781256;29;89211;-68
2023/01/24 00:23:50;;;;;;;15.20;10.63;;;1.70;99.90;1.30;102653.00;;;;4785933;29;87811;-69
2023/01/24 00:26:16;;;;;;;22.30;11.30;;;1.70;99.90;1.30;102647.00;;;;4765798;29;88208;-69
2023/01/24 00:28:42;;;;;;;19.07;11.17;;;1.60;99.90;1.30;102638.00;;;;4763390;29;89539;-68
2023/01/24 00:31:08;;;;;;;13.50;10.60;;;1.70;99.90;1.30;102633.00;;;;4782248;29;88715;-69
2023/01/24 00:33:34;;;;;;;14.23;10.77;;;1.60;99.90;1.30;102626.00;;;;4780090;29;87719;-69
2023/01/24 00:36:00;;;;;;;18.43;12.00;;;1.70;99.90;1.30;102622.00;;;;4781355;29;98990;-67
2023/01/24 00:38:29;;;;;;;15.70;10.80;;;1.60;99.90;1.30;102625.00;;;;4777065;29;118212;-68
2023/01/24 00:40:55;;;;;;;11.47;9.37;;;1.70;99.90;1.30;102640.00;;;;4779571;29;88958;-69
2023/01/24 00:43:21;;;;;;;15.43;10.20;;;1.60;99.90;1.30;102630.00;;;;4780842;29;112285;-68
2023/01/24 00:45:46;;;;;;;16.33;11.07;;;2.40;99.90;1.30;102640.00;;;;4781048;29;107112;-67
2023/01/24 00:48:13;;;;;;;17.13;10.43;;;1.60;99.90;1.30;102642.00;;;;4780256;29;102932;-68
2023/01/24 00:50:40;;;;;;;15.30;10.53;;;1.70;99.90;1.30;102645.00;;;;4779218;29;87802;-68
2023/01/24 00:53:05;;;;;;;13.33;10.47;;;1.70;99.90;1.30;102639.00;;;;4784882;29;88086;-68
2023/01/24 00:55:31;;;;;;;17.47;10.63;;;1.50;99.90;1.30;102641.00;;;;4780425;29;108670;-69
2023/01/24 00:57:57;;;;;;;14.67;11.37;;;2.50;99.90;1.30;102639.00;;;;4780171;29;116078;-68
2023/01/24 01:00:23;;;;;;;16.60;10.60;;;1.70;99.90;1.30;102651.00;;;;4780040;29;87881;-68
2023/01/24 01:02:50;;;;;;;20.30;11.80;;;1.70;99.90;1.30;102658.00;;;;4782420;29;96203;-69
2023/01/24 01:05:17;;;;;;;15.60;10.50;;;1.60;99.90;1.30;102649.00;;;;4780916;29;87875;-69
2023/01/24 01:07:42;;;;;;;19.07;11.00;;;1.60;99.90;1.30;102644.00;;;;4778738;29;93411;-68
2023/01/24 01:10:10;;;;;;;19.33;11.27;;;1.60;99.90;1.30;102643.00;;;;4781556;29;119049;-69
2023/01/24 01:12:36;;;;;;;17.13;12.00;;;1.70;99.90;1.30;102651.00;;;;4780426;29;102389;-68
2023/01/24 01:15:02;;;;;;;17.00;10.53;;;1.70;99.90;1.40;102651.00;;;;4779433;29;102989;-69
2023/01/24 01:17:28;;;;;;;18.43;10.87;;;1.60;99.90;1.30;102644.00;;;;4779828;29;88866;-69
2023/01/24 01:19:54;;;;;;;18.80;10.37;;;1.70;99.90;1.40;102648.00;;;;4780988;29;89526;-68
2023/01/24 01:22:20;;;;;;;17.07;10.00;;;1.70;99.90;1.30;102640.00;;;;4779642;29;87932;-68
2023/01/24 01:24:46;;;;;;;14.93;10.60;;;1.70;99.90;1.40;102641.00;;;;4779937;29;109389;-69
2023/01/24 01:27:12;;;;;;;14.27;10.40;;;1.60;99.90;1.40;102635.00;;;;4778790;29;87988;-68
2023/01/24 01:29:38;;;;;;;19.33;12.07;;;1.70;99.90;1.30;102639.00;;;;4779360;29;108949;-69
2023/01/24 01:32:03;;;;;;;21.47;11.80;;;1.70;99.90;1.40;102640.00;;;;4780021;29;90229;-68
2023/01/24 01:34:29;;;;;;;14.73;10.67;;;1.60;99.90;1.40;102642.00;;;;4780456;29;98972;-68
2023/01/24 01:36:55;;;;;;;24.90;11.30;;;1.70;99.90;1.40;102645.00;;;;4782908;29;118072;-68
2023/01/24 01:39:20;;;;;;;17.23;11.37;;;1.70;99.90;1.40;102648.00;;;;4781820;29;92685;-68
2023/01/24 01:41:46;;;;;;;15.97;11.20;;;1.60;99.90;1.40;102641.00;;;;4778257;29;113461;-68
2023/01/24 01:44:37;;;;;;;13.20;10.77;;;1.70;99.90;1.40;102631.00;;;;4777634;29;107068;-69
2023/01/24 01:47:09;;;;;;;15.97;10.40;;;1.70;99.90;1.30;102630.00;;;;4780645;29;87930;-69
2023/01/24 01:49:35;;;;;;;19.50;11.27;;;1.60;99.90;1.40;102630.00;;;;4781297;29;88285;-69
2023/01/24 01:52:03;;;;;;;22.07;12.43;;;1.60;99.90;1.40;102629.00;;;;4778773;29;112713;-70
2023/01/24 01:54:44;;;;;;;19.67;10.97;;;1.70;99.90;1.40;102628.00;;;;4763370;29;87744;-69
2023/01/24 01:57:24;;;;;;;17.70;10.07;;;1.70;99.90;1.40;102638.00;;;;4789929;29;89179;-68
2023/01/24 02:00:00;;;;;;;15.87;10.23;;;1.70;99.90;1.40;102641.00;;;;4781036;29;111393;-68
2023/01/24 02:02:26;;;;;;;16.83;10.10;;;1.70;99.90;1.40;102628.00;;;;4783047;29;87739;-69
2023/01/24 02:04:57;;;;;;;26.03;13.03;;;1.70;99.90;1.40;102631.00;;;;4782170;29;87884;-68
2023/01/24 02:07:31;;;;;;;14.93;11.27;;;1.70;99.90;1.40;102634.00;;;;4783936;29;94785;-69
2023/01/24 02:09:57;;;;;;;15.27;10.30;;;1.70;99.90;1.40;102626.00;;;;4782589;29;88255;-69
2023/01/24 02:12:38;;;;;;;18.13;12.10;;;1.70;99.90;1.40;102633.00;;;;4784723;29;88101;-68
2023/01/24 02:18:00;;;;;;;15.23;9.80;;;1.70;99.90;1.40;102642.00;;;;4778508;29;87815;-68
2023/01/24 02:20:47;;;;;;;17.30;11.10;;;1.70;99.90;1.40;102642.00;;;;4780538;29;88919;-69
2023/01/24 02:23:56;;;;;;;17.00;11.40;;;1.70;99.90;1.30;102630.00;;;;4783527;29;88858;-68
2023/01/24 02:26:25;;;;;;;21.10;13.00;;;1.60;99.90;1.30;102632.00;;;;4769391;29;103151;-70
2023/01/24 02:29:04;;;;;;;22.17;11.73;;;1.70;99.90;1.30;102638.00;;;;4782302;29;111997;-69
2023/01/24 02:31:29;;;;;;;16.73;11.20;;;1.60;99.90;1.30;102635.00;;;;4795982;29;106948;-69
2023/01/24 02:33:55;;;;;;;16.87;10.87;;;1.60;99.90;1.30;102627.00;;;;4782202;29;102429;-70
2023/01/24 02:36:33;;;;;;;15.37;10.80;;;1.50;99.90;1.30;102620.00;;;;4782491;29;108985;-70
2023/01/24 02:39:04;;;;;;;23.10;12.77;;;1.50;99.90;1.30;102630.00;;;;4794697;29;108048;-69
2023/01/24 02:42:00;;;;;;;21.33;10.80;;;1.60;99.90;1.20;102633.00;;;;4796946;29;111360;-69
2023/01/24 02:44:37;;;;;;;16.23;11.63;;;1.60;99.90;1.30;102641.00;;;;4782553;29;87765;-68
2023/01/24 02:47:03;;;;;;;15.07;11.30;;;1.80;99.90;1.30;102641.00;;;;4795994;29;87938;-68
2023/01/24 02:49:29;;;;;;;18.00;11.63;;;1.60;99.90;1.30;102629.00;;;;4781144;29;119931;-69
2023/01/24 02:54:39;;;;;;;25.13;11.37;;;1.50;99.90;1.30;102635.00;;;;4784436;29;87920;-69
2023/01/24 02:59:50;;;;;;;20.63;12.43;;;1.50;99.90;1.30;102624.00;;;;4785615;29;87843;-69
2023/01/24 03:02:15;;;;;;;20.80;14.13;;;1.50;99.90;1.30;102632.00;;;;4783606;29;116652;-70
2023/01/24 03:04:41;;;;;;;16.47;10.40;;;1.60;99.90;1.30;102641.00;;;;4781051;29;112507;-70
2023/01/24 03:07:07;;;;;;;15.20;10.07;;;1.70;99.90;1.30;102642.00;;;;4781517;29;87109;-70
2023/01/24 03:09:38;;;;;;;13.40;10.20;;;1.60;99.90;1.40;102635.00;;;;4781311;29;117559;-69
2023/01/24 03:36:54;;;;;;;23.20;12.57;;;1.80;99.90;1.40;102639.00;;;;4788833;29;89690;-70
2023/01/24 03:42:05;;;;;;;17.03;9.93;;;1.70;99.90;1.40;102630.00;;;;4779731;29;88697;-69
2023/01/24 03:44:31;;;;;;;14.10;11.30;;;1.80;99.90;1.40;102638.00;;;;4784056;29;102675;-69
2023/01/24 03:46:56;;;;;;;14.17;10.63;;;1.80;99.90;1.40;102632.00;;;;4778847;29;87811;-68
2023/01/24 03:54:51;;;;;;;19.90;12.17;;;1.70;99.90;1.40;102634.00;;;;4779179;29;87949;-69
2023/01/24 03:57:16;;;;;;;19.40;11.77;;;1.60;99.90;1.50;102633.00;;;;4779252;29;113717;-69
2023/01/24 03:59:42;;;;;;;15.13;11.10;;;1.80;99.90;1.50;102639.00;;;;4782822;29;108207;-68
2023/01/24 04:02:08;;;;;;;17.73;11.97;;;1.80;99.90;1.50;102638.00;;;;4781166;29;117124;-68
2023/01/24 04:07:19;;;;;;;18.60;10.77;;;1.70;99.90;1.50;102643.00;;;;4774184;29;88610;-68
2023/01/24 04:09:44;;;;;;;14.80;11.43;;;1.80;99.90;1.40;102643.00;;;;4782976;29;98992;-70
2023/01/24 04:12:10;;;;;;;20.10;11.93;;;1.80;99.90;1.40;102643.00;;;;4782749;29;117657;-69
2023/01/24 04:14:36;;;;;;;19.53;10.57;;;1.80;99.90;1.40;102643.00;;;;4783275;29;111570;-68
2023/01/24 04:17:01;;;;;;;15.03;9.70;;;1.70;99.90;1.40;102640.00;;;;4782128;29;112458;-69
2023/01/24 04:19:27;;;;;;;17.70;11.30;;;1.70;99.90;1.40;102633.00;;;;4779903;29;108827;-70
2023/01/24 04:21:53;;;;;;;21.50;11.60;;;1.80;99.90;1.40;102631.00;;;;4780731;29;117667;-70
2023/01/24 04:24:18;;;;;;;16.00;11.23;;;1.80;99.90;1.40;102631.00;;;;4783109;29;87022;-69
2023/01/24 04:26:44;;;;;;;16.40;11.50;;;1.70;99.90;1.40;102624.00;;;;4781359;29;112316;-69
2023/01/24 04:29:10;;;;;;;19.27;12.67;;;1.70;99.90;1.40;102633.00;;;;4778853;29;108773;-70
2023/01/24 04:31:35;;;;;;;19.83;12.80;;;1.80;99.90;1.40;102634.00;;;;4779294;29;118019;-71
2023/01/24 04:34:01;;;;;;;19.13;12.40;;;1.80;99.90;1.40;102629.00;;;;4779530;29;96584;-69
2023/01/24 04:36:27;;;;;;;28.00;13.00;;;2.50;99.90;1.40;102631.00;;;;4779120;29;113654;-70
2023/01/24 04:38:55;;;;;;;21.00;10.87;;;1.80;99.90;1.40;102621.00;;;;4781490;29;108415;-69
2023/01/24 04:41:21;;;;;;;20.53;12.10;;;1.80;99.90;1.50;102623.00;;;;4796013;29;88386;-70
2023/01/24 04:43:46;;;;;;;17.33;9.97;;;1.80;99.90;1.50;102632.00;;;;4793812;29;90891;-71
2023/01/24 04:46:12;;;;;;;18.60;13.37;;;1.80;99.90;1.40;102629.00;;;;4779205;29;112321;-70
2023/01/24 04:48:38;;;;;;;21.00;13.03;;;1.80;99.90;1.40;102629.00;;;;4778886;29;108551;-71
2023/01/24 04:51:04;;;;;;;22.03;12.40;;;1.80;99.90;1.40;102629.00;;;;4778054;29;117698;-69
2023/01/24 04:53:30;;;;;;;18.47;12.13;;;1.70;99.90;1.40;102617.00;;;;4781325;29;115993;-70
2023/01/24 04:56:02;;;;;;;11.80;10.07;;;1.80;99.90;1.40;102627.00;;;;4778205;29;88828;-70
2023/01/24 04:58:28;;;;;;;18.30;11.67;;;1.80;99.90;1.40;102632.00;;;;4781001;29;87806;-70
2023/01/24 05:00:53;;;;;;;20.50;11.53;;;1.70;99.90;1.40;102634.00;;;;4782218;29;89033;-70
2023/01/24 05:03:19;;;;;;;22.97;12.27;;;1.70;99.90;1.40;102629.00;;;;4779305;29;116971;-70
2023/01/24 05:05:53;;;;;;;18.03;11.90;;;1.80;99.90;1.40;102627.00;;;;4781092;29;113040;-69
2023/01/24 05:08:19;;;;;;;16.63;12.03;;;1.80;99.90;1.40;102633.00;;;;4765741;29;87841;-69
2023/01/24 05:10:45;;;;;;;20.57;13.80;;;1.80;99.90;1.40;102632.00;;;;4782281;29;88486;-70
2023/01/24 05:13:10;;;;;;;23.13;11.00;;;1.70;99.90;1.40;102632.00;;;;4792262;29;116984;-70
2023/01/24 05:15:36;;;;;;;14.63;10.73;;;1.80;99.90;1.40;102638.00;;;;4782639;29;113094;-71
2023/01/24 05:18:03;;;;;;;16.93;12.70;;;1.70;99.90;1.40;102631.00;;;;4777762;29;99125;-70
2023/01/24 05:20:29;;;;;;;17.97;10.80;;;1.70;99.90;1.40;102641.00;;;;4781157;29;89783;-70
2023/01/24 05:22:58;;;;;;;17.53;11.73;;;1.70;99.90;1.40;102632.00;;;;4777610;29;89720;-70
2023/01/24 05:25:24;;;;;;;14.60;11.17;;;1.70;99.90;1.40;102642.00;;;;4777838;29;113973;-70
2023/01/24 05:27:50;;;;;;;21.93;12.13;;;1.70;99.90;1.40;102638.00;;;;4779487;29;103128;-70
2023/01/24 05:30:16;;;;;;;15.87;11.30;;;1.80;99.90;1.40;102644.00;;;;4781208;29;87989;-70
2023/01/24 05:32:41;;;;;;;17.37;11.27;;;1.70;99.90;1.50;102650.00;;;;4781814;29;110039;-69
2023/01/24 05:35:08;;;;;;;26.87;11.70;;;1.70;99.90;1.50;102646.00;;;;4779948;29;87690;-69
2023/01/24 05:37:39;;;;;;;18.43;12.33;;;1.80;99.90;1.50;102661.00;;;;4766786;29;87177;-70
2023/01/24 05:40:06;;;;;;;23.33;13.87;;;1.70;99.90;1.50;102644.00;;;;4768148;29;89405;-70
2023/01/24 05:42:32;;;;;;;19.43;11.83;;;1.90;99.90;1.50;102649.00;;;;4786489;29;88115;-69
2023/01/24 05:44:58;;;;;;;14.63;11.23;;;1.80;99.90;1.50;102648.00;;;;4784343;29;113646;-70
2023/01/24 05:47:23;;;;;;;16.43;11.70;;;2.80;99.90;1.50;102652.00;;;;4784628;29;88041;-70
2023/01/24 05:49:49;;;;;;;16.97;13.00;;;1.80;99.90;1.50;102653.00;;;;4782380;29;110719;-69
2023/01/24 05:52:22;;;;;;;22.40;11.57;;;1.80;99.90;1.50;102654.00;;;;4763644;29;115855;-69
2023/01/24 05:54:48;;;;;;;22.87;11.23;;;2.80;99.90;1.50;102661.00;;;;4782508;29;87983;-69
2023/01/24 05:57:15;;;;;;;19.67;13.67;;;1.70;99.90;1.50;102651.00;;;;4780115;29;88004;-71
2023/01/24 05:59:40;;;;;;;14.57;10.53;;;1.80;99.90;1.50;102645.00;;;;4782000;29;90365;-69
2023/01/24 06:02:06;;;;;;;23.73;13.00;;;1.80;99.90;1.50;102646.00;;;;4781588;29;117628;-70
2023/01/24 06:04:31;;;;;;;14.40;10.63;;;2.20;99.90;1.50;102652.00;;;;4794304;29;111860;-70
2023/01/24 06:06:57;;;;;;;17.90;11.70;;;1.90;99.90;1.50;102655.00;;;;4781614;29;107373;-70
2023/01/24 06:09:23;;;;;;;16.70;10.83;;;1.70;99.90;1.50;102656.00;;;;4778180;29;117897;-70
2023/01/24 06:11:49;;;;;;;16.30;11.97;;;1.90;99.90;1.50;102659.00;;;;4783274;29;89677;-69
2023/01/24 06:14:15;;;;;;;25.00;12.43;;;1.80;99.90;1.50;102667.00;;;;4782318;29;104122;-70
2023/01/24 06:16:44;;;;;;;23.70;12.83;;;2.20;99.90;1.50;102654.00;;;;4783643;29;87888;-70
2023/01/24 06:19:11;;;;;;;20.63;12.73;;;1.80;99.90;1.50;102669.00;;;;4781909;29;88112;-70
2023/01/24 06:22:03;;;;;;;19.87;11.77;;;1.90;99.90;1.50;102671.00;;;;4781126;29;106419;-69
2023/01/24 06:24:29;;;;;;;16.53;11.70;;;1.90;99.90;1.50;102675.00;;;;4783094;29;103914;-70
2023/01/24 06:26:56;;;;;;;19.00;10.23;;;1.80;99.90;1.50;102674.00;;;;4783600;29;95837;-70
2023/01/24 06:29:22;;;;;;;18.40;11.93;;;1.90;99.90;1.50;102684.00;;;;4783126;29;88996;-70
2023/01/24 06:32:06;;;;;;;16.97;11.57;;;2.00;99.90;1.50;102673.00;;;;4782636;29;107301;-70
2023/01/24 06:34:32;;;;;;;20.40;12.50;;;1.90;99.90;1.50;102688.00;;;;4784045;29;89016;-68
2023/01/24 06:37:44;;;;;;;18.63;11.83;;;1.70;99.90;1.50;102675.00;;;;4783187;29;105853;-70
2023/01/24 06:40:12;;;;;;;19.97;11.40;;;1.80;99.90;1.50;102688.00;;;;4783360;29;110063;-69
2023/01/24 06:42:38;;;;;;;17.10;10.47;;;2.10;99.90;1.40;102667.00;;;;4781667;29;106768;-69
2023/01/24 06:45:06;;;;;;;21.70;14.20;;;1.80;99.90;1.40;102682.00;;;;4780070;29;88615;-68
2023/01/24 06:47:31;;;;;;;22.27;12.53;;;1.80;99.90;1.40;102678.00;;;;4780326;29;99562;-69
2023/01/24 06:49:57;;;;;;;19.83;11.17;;;1.70;99.90;1.40;102683.00;;;;4783197;29;115834;-69
2023/01/24 06:52:23;;;;;;;20.27;11.70;;;2.30;99.90;1.40;102680.00;;;;4777862;29;119174;-69
2023/01/24 06:54:49;;;;;;;18.30;12.77;;;1.70;99.90;1.40;102675.00;;;;4781922;29;87868;-70
2023/01/24 06:57:15;;;;;;;14.03;10.03;;;1.70;99.90;1.40;102676.00;;;;4782704;29;108814;-69
2023/01/24 06:59:41;;;;;;;19.40;12.30;;;1.70;99.90;1.40;102688.00;;;;4785339;29;88981;-69
2023/01/24 07:02:09;;;;;;;16.13;12.80;;;1.60;99.90;1.40;102683.00;;;;4781117;29;119374;-69
2023/01/24 07:04:36;;;;;;;14.87;10.63;;;1.60;99.90;1.40;102691.00;;;;4764635;29;87762;-71
2023/01/24 07:07:02;;;;;;;18.93;12.40;;;1.70;99.90;1.40;102694.00;;;;4783390;29;87871;-70
2023/01/24 07:09:28;;;;;;;25.23;13.43;;;1.70;99.90;1.40;102680.00;;;;4781221;29;110268;-69
2023/01/24 07:11:57;;;;;;;19.87;12.23;;;1.70;99.90;1.50;102687.00;;;;4785894;29;118081;-69
2023/01/24 07:14:23;;;;;;;13.03;10.33;;;1.80;99.90;1.50;102694.00;;;;4782990;29;88131;-70
2023/01/24 07:16:52;;;;;;;18.47;10.57;;;1.70;99.90;1.50;102687.00;;;;4782763;29;108475;-69
2023/01/24 07:19:23;;;;;;;21.37;11.83;;;1.80;99.90;1.50;102692.00;;;;4782193;29;88190;-70
2023/01/24 07:21:50;;;;;;;20.17;12.97;;;1.80;99.90;1.50;102695.00;;;;4782188;29;89286;-69
2023/01/24 07:24:19;;;;;;;20.50;11.87;;;1.80;99.90;1.60;102708.00;;;;4780115;29;88801;-70
2023/01/24 07:26:45;;;;;;;22.43;11.57;;;1.80;99.90;1.60;102705.00;;;;4796025;29;87970;-70
2023/01/24 07:29:11;;;;;;;17.80;10.90;;;1.80;99.90;1.60;102705.00;;;;4780287;29;88552;-69
2023/01/24 07:31:38;;;;;;;18.90;10.87;;;1.80;99.90;1.60;102703.00;;;;4782203;29;116333;-69
2023/01/24 07:34:03;;;;;;;22.97;12.53;;;1.80;99.90;1.60;102710.00;;;;4782254;29;87939;-69
2023/01/24 07:36:29;;;;;;;17.33;11.03;;;1.90;99.90;1.60;102715.00;;;;4780592;29;109351;-69
2023/01/24 07:38:56;;;;;;;20.33;12.13;;;1.90;99.90;1.60;102701.00;;;;4779528;29;117948;-69
2023/01/24 07:41:22;;;;;;;22.23;12.27;;;1.90;99.90;1.60;102712.00;;;;4780386;29;88584;-69
2023/01/24 07:43:48;;;;;;;24.10;12.83;;;1.90;99.90;1.50;102703.00;;;;4783425;29;87795;-69
2023/01/24 07:46:14;;;;;;;14.43;11.80;;;2.60;99.90;1.50;102706.00;;;;4782716;29;110112;-69
2023/01/24 07:48:39;;;;;;;20.83;12.67;;;1.20;99.90;1.50;102713.00;;;;4783114;29;89803;-68
2023/01/24 07:51:05;;;;;;;22.63;13.37;;;1.70;99.90;1.50;102708.00;;;;4783173;29;112582;-68
2023/01/24 07:53:31;;;;;;;15.50;11.17;;;1.80;99.90;1.50;102719.00;;;;4783609;29;87875;-70
2023/01/24 07:56:00;;;;;;;20.70;13.13;;;1.80;99.90;1.50;102721.00;;;;4780070;29;101244;-69
2023/01/24 07:58:26;;;;;;;15.10;11.47;;;1.80;99.90;1.50;102734.00;;;;4781467;29;93530;-69
2023/01/24 08:00:52;;;;;;;23.67;12.70;;;1.80;99.90;1.50;102738.00;;;;4781146;29;118401;-68
2023/01/24 08:03:17;;;;;;;17.43;11.80;;;1.70;99.90;1.50;102736.00;;;;4778768;29;112865;-69
2023/01/24 08:05:43;;;;;;;21.50;12.27;;;1.70;99.90;1.50;102740.00;;;;4781849;29;109644;-69
2023/01/24 08:08:09;;;;;;;20.17;13.80;;;1.80;99.90;1.50;102752.00;;;;4781353;29;117870;-69
2023/01/24 08:10:35;;;;;;;18.53;11.10;;;1.80;99.90;1.50;102755.00;;;;4784029;29;116459;-69
2023/01/24 08:13:01;;;;;;;17.83;11.83;;;1.80;99.90;1.50;102740.00;;;;4780371;29;88801;-70
2023/01/24 08:15:26;;;;;;;18.07;12.33;;;1.80;99.90;1.50;102750.00;;;;4777428;29;101460;-69
2023/01/24 08:17:52;;;;;;;19.23;11.73;;;1.80;99.90;1.50;102754.00;;;;4780650;29;117733;-69
2023/01/24 08:20:18;;;;;;;15.80;11.40;;;1.70;99.90;1.40;102750.00;;;;4778996;29;117034;-69
2023/01/24 08:22:43;;;;;;;20.87;12.70;;;1.70;99.90;1.50;102761.00;;;;4780048;29;92074;-69
2023/01/24 08:25:11;;;;;;;19.97;11.80;;;1.80;99.90;1.40;102746.00;;;;4782641;29;108349;-68
2023/01/24 08:27:40;;;;;;;24.07;12.13;;;1.70;99.90;1.50;102752.00;;;;4780239;29;88392;-69
2023/01/24 08:30:10;;;;;;;18.00;10.90;;;1.90;99.90;1.50;102746.00;;;;4785249;29;88792;-68
2023/01/24 08:32:36;;;;;;;20.67;13.17;;;1.80;99.90;1.50;102745.00;;;;4786007;29;87893;-69
2023/01/24 08:35:03;;;;;;;19.90;12.10;;;1.70;99.90;1.50;102738.00;;;;4781395;29;102845;-71
2023/01/24 08:37:28;;;;;;;19.23;13.03;;;1.80;99.90;1.50;102747.00;;;;4779017;29;112812;-70
2023/01/24 08:39:56;;;;;;;21.73;15.50;;;1.80;99.90;1.50;102754.00;;;;4781153;29;118384;-70
2023/01/24 08:42:23;;;;;;;17.17;12.50;;;1.80;99.90;1.50;102751.00;;;;4792082;29;87898;-69
2023/01/24 08:44:49;;;;;;;19.47;12.97;;;1.80;99.90;1.50;102753.00;;;;4795143;29;88138;-68
2023/01/24 08:47:14;;;;;;;17.83;13.37;;;1.90;99.90;1.60;102746.00;;;;4778496;29;116769;-70
2023/01/24 08:49:40;;;;;;;23.87;13.90;;;1.90;99.90;1.50;102756.00;;;;4779644;29;116316;-70
2023/01/24 08:52:06;;;;;;;19.37;11.90;;;1.90;99.90;1.60;102754.00;;;;4780586;29;112252;-69
2023/01/24 08:54:32;;;;;;;21.93;12.80;;;1.90;99.90;1.60;102752.00;;;;4780402;29;87037;-68
2023/01/24 08:56:58;;;;;;;28.90;14.53;;;2.00;99.90;1.60;102754.00;;;;4778395;29;88752;-69
2023/01/24 08:59:24;;;;;;;23.23;13.47;;;1.80;99.90;1.60;102741.00;;;;4793992;29;89333;-70
2023/01/24 09:01:50;;;;;;;26.27;13.77;;;1.90;99.90;1.60;102749.00;;;;4781137;29;104820;-69
2023/01/24 09:04:15;;;;;;;30.10;14.53;;;1.90;99.90;1.60;102753.00;;;;4778753;29;110291;-69
2023/01/24 09:06:41;;;;;;;27.30;13.50;;;1.80;99.90;1.60;102754.00;;;;4781193;29;117079;-69
2023/01/24 09:09:07;;;;;;;17.67;13.63;;;2.30;99.90;1.60;102748.00;;;;4780794;29;89025;-68
2023/01/24 09:11:32;;;;;;;22.87;13.53;;;1.80;99.90;1.60;102747.00;;;;4779967;29;113429;-68
2023/01/24 09:13:58;;;;;;;25.63;13.20;;;2.00;99.90;1.60;102743.00;;;;4780657;29;108386;-70
2023/01/24 09:16:26;;;;;;;20.53;13.40;;;1.90;99.90;1.70;102751.00;;;;4782072;29;116609;-69
2023/01/24 09:18:53;;;;;;;22.30;12.57;;;1.90;99.90;1.70;102749.00;;;;4784346;29;88874;-69
2023/01/24 09:21:19;;;;;;;19.40;12.73;;;2.00;99.90;1.70;102754.00;;;;4781821;29;87753;-68
2023/01/24 09:23:45;;;;;;;18.93;12.53;;;2.00;99.90;1.80;102738.00;;;;4782160;29;100224;-70
2023/01/24 09:26:11;;;;;;;20.50;12.47;;;2.00;99.90;1.80;102742.00;;;;4780349;29;89948;-69
2023/01/24 09:28:37;;;;;;;22.37;14.20;;;2.00;99.90;1.80;102750.00;;;;4776625;29;90513;-69
2023/01/24 09:31:03;;;;;;;22.13;12.33;;;2.10;99.90;1.90;102755.00;;;;4780865;29;88228;-69
2023/01/24 09:33:29;;;;;;;22.07;14.30;;;2.20;99.90;1.90;102758.00;;;;4794985;29;100726;-69
2023/01/24 09:36:00;;;;;;;15.93;12.27;;;2.10;99.90;1.90;102761.00;;;;4779452;29;89092;-69
2023/01/24 09:38:28;;;;;;;26.80;12.90;;;2.90;99.90;1.90;102753.00;;;;4781293;29;87970;-69
2023/01/24 09:41:17;;;;;;;16.10;11.97;;;2.20;99.90;1.90;102761.00;;;;4782061;29;87697;-70
2023/01/24 09:43:52;;;;;;;13.23;10.50;;;2.30;99.90;1.90;102746.00;;;;4791389;29;101169;-70
2023/01/24 09:46:31;;;;;;;18.60;10.83;;;2.30;99.90;1.90;102755.00;;;;4781834;29;88437;-69
2023/01/24 09:49:37;;;;;;;14.97;12.53;;;2.20;99.90;1.90;102751.00;;;;4780370;29;89836;-68
2023/01/24 09:52:11;;;;;;;24.83;11.50;;;2.30;99.90;2.00;102758.00;;;;4778313;29;107533;-68
2023/01/24 09:55:29;;;;;;;17.40;11.23;;;2.40;99.90;2.00;102754.00;;;;4791272;29;98644;-68
2023/01/24 09:58:26;;;;;;;18.17;10.70;;;2.30;99.90;2.10;102750.00;;;;4742687;29;88340;-69
2023/01/24 10:00:52;;;;;;;23.30;12.33;;;2.30;99.90;2.10;102766.00;;;;4781291;29;87834;-69
2023/01/24 10:03:21;;;;;;;16.67;11.30;;;2.40;99.90;2.10;102754.00;;;;4779238;29;114041;-69
2023/01/24 10:05:52;;;;;;;18.07;11.27;;;2.30;99.90;2.10;102746.00;;;;4794777;29;98328;-68
2023/01/24 10:08:44;;;;;;;19.37;11.57;;;2.40;99.90;2.10;102754.00;;;;4780578;29;113018;-68
2023/01/24 10:12:01;;;;;;;18.80;11.83;;;2.30;99.90;2.10;102749.00;;;;4780533;29;87405;-69
2023/01/24 10:14:44;;;;;;;15.50;9.87;;;2.40;99.90;2.10;102748.00;;;;4778586;29;105836;-69
2023/01/24 10:17:24;;;;;;;24.90;11.00;;;2.40;99.90;2.10;102759.00;;;;4793788;29;87791;-69
2023/01/24 10:20:29;;;;;;;19.43;12.23;;;2.40;99.90;2.10;102742.00;;;;4793680;29;106164;-70
2023/01/24 10:23:16;;;;;;;19.93;12.90;;;2.30;99.90;2.10;102740.00;;;;4793160;29;88214;-69
2023/01/24 10:26:05;;;;;;;18.70;9.93;;;2.40;99.90;2.10;102749.00;;;;4780376;29;88060;-69
2023/01/24 10:28:38;;;;;;;19.57;11.80;;;3.10;99.90;2.10;102741.00;;;;4798569;29;87882;-70
2023/01/24 10:31:29;;;;;;;16.73;12.13;;;2.50;99.90;2.10;102732.00;;;;4795814;29;88158;-69
2023/01/24 10:34:08;;;;;;;19.53;12.03;;;2.40;99.90;2.10;102743.00;;;;4779245;29;110812;-71
2023/01/24 10:36:53;;;;;;;19.40;13.23;;;2.40;99.90;2.10;102728.00;;;;4782178;29;103819;-70
2023/01/24 10:39:19;;;;;;;22.30;11.40;;;2.50;99.90;2.10;102734.00;;;;4782262;29;93419;-70
2023/01/24 10:41:45;;;;;;;22.57;12.87;;;2.30;99.90;2.10;102742.00;;;;4784904;29;117287;-70
2023/01/24 10:44:27;;;;;;;25.07;13.20;;;2.40;99.90;2.10;102739.00;;;;4782429;29;116827;-70
2023/01/24 10:47:40;;;;;;;19.03;11.83;;;2.40;99.90;2.10;102739.00;;;;4795487;29;89074;-68
2023/01/24 10:50:15;;;;;;;21.10;13.37;;;2.40;99.90;2.10;102751.00;;;;4783425;29;88033;-68
2023/01/24 10:52:41;;;;;;;19.10;11.13;;;2.30;99.90;2.10;102732.00;;;;4780465;29;88919;-69
2023/01/24 10:55:41;;;;;;;19.77;12.23;;;2.30;99.90;2.10;102740.00;;;;4783645;29;87991;-68
2023/01/24 10:58:24;;;;;;;22.17;12.43;;;2.50;99.90;2.10;102735.00;;;;4776148;29;88300;-70
2023/01/24 11:00:59;;;;;;;19.43;11.63;;;2.30;99.90;2.10;102737.00;;;;4783677;29;87741;-69
2023/01/24 11:03:34;;;;;;;16.53;12.07;;;2.40;99.90;2.10;102736.00;;;;4794887;29;88056;-69
2023/01/24 11:06:01;;;;;;;16.10;11.03;;;2.30;99.90;2.10;102737.00;;;;4784069;29;87735;-71
2023/01/24 11:08:37;;;;;;;19.63;13.27;;;2.40;99.90;2.10;102729.00;;;;4782955;29;103238;-70
2023/01/24 11:11:17;;;;;;;20.23;11.77;;;2.40;99.90;2.10;102726.00;;;;4782530;29;87868;-70
2023/01/24 11:13:44;;;;;;;15.27;11.20;;;2.30;99.90;2.10;102720.00;;;;4782132;29;95922;-70
2023/01/24 11:16:16;;;;;;;22.17;10.67;;;2.40;99.90;2.10;102723.00;;;;4782556;29;117142;-70
2023/01/24 11:18:52;;;;;;;18.77;12.33;;;2.40;99.90;2.10;102723.00;;;;4780400;29;113116;-69
2023/01/24 11:21:19;;;;;;;16.23;10.20;;;3.10;99.90;2.20;102716.00;;;;4766430;29;88060;-69
2023/01/24 11:23:45;;;;;;;19.73;13.13;;;2.40;99.90;2.20;102722.00;;;;4782885;29;90334;-72
2023/01/24 11:26:28;;;;;;;21.27;12.00;;;3.20;99.90;2.20;102715.00;;;;4782391;29;87780;-71
2023/01/24 11:29:14;;;;;;;24.40;12.63;;;2.50;99.90;2.20;102722.00;;;;4795509;29;88027;-71
2023/01/24 11:31:45;;;;;;;16.20;11.63;;;2.50;99.90;2.30;102713.00;;;;4779710;29;101670;-71
2023/01/24 11:35:04;;;;;;;17.27;12.03;;;2.50;99.90;2.20;102707.00;;;;4762194;29;113485;-71
2023/01/24 11:38:16;;;;;;;23.90;11.13;;;2.60;99.90;2.20;102706.00;;;;4746735;29;87840;-70
2023/01/24 11:41:08;;;;;;;16.53;11.33;;;2.50;99.90;2.30;102715.00;;;;4794477;29;89040;-71
2023/01/24 11:43:45;;;;;;;16.97;11.63;;;1.90;99.90;2.30;102703.00;;;;4792383;29;101204;-70